E.r. Bern — A8XQ5 — position and weather

sailwx.info

Track history (hours):
 
Tides and Currents Weather Stations Pressure Air Temp Water Temp Dewpoint Dewpoint Depression Visibility Wind Speed Wind Dir Waves Ship Positions

E.r. Bern

Last reported at 2015-Jul-26 17:31 UTC. Time now 2015-Aug-01 20:18 UTC.
Position N 29°22' E 122°59'.

Length 187 m; draft 12.4 m.

Type: Cargo ship. MMSI: 636092150.

Date/timePositionNaut miles runAvg speedWind from/ knotsBaromVisibWave heightAir tempDewpointWater temp
2015-Jul-26 17:31N 29°22' E 122°59'1410.4
2015-Jul-26 16:10N 29°36' E 123°03'710.6
2015-Jul-26 15:29N 29°43' E 123°04'1010.4
2015-Jul-26 14:33N 29°52' E 123°07'1310.5
2015-Jul-26 13:22N 30°05' E 123°10'1010.1
2015-Jul-26 12:20N 30°15' E 123°12'1810.1
2015-Jul-26 10:33N 30°32' E 123°17'22 9.5
2015-Jul-26 08:15N 30°54' E 123°20'7 9.8
2015-Jul-26 07:32N 31°01' E 123°19'11 9.8
2015-Jul-26 06:25N 31°12' E 123°18'33510.3
2015-Jul-24 22:05N 36°46' E 122°48'611.9
2015-Jul-24 21:33N 36°52' E 122°48'1211.7
2015-Jul-24 20:31N 37°04' E 122°48'3110.4
2015-Jul-24 17:30N 37°35' E 122°39'1010.5
2015-Jul-24 16:33N 37°41' E 122°29'1110.5
2015-Jul-24 15:33N 37°48' E 122°19'1310.8
2015-Jul-24 14:22N 37°57' E 122°08'141 7.5
2015-Jul-23 19:26N 40°18' E 121°55'8 8.9
2015-Jul-23 18:33N 40°17' E 122°05'2 1.9
2015-Jul-23 17:28N 40°15' E 122°06'0 0.0
2015-Jul-23 16:28N 40°15' E 122°06'0 0.0
2015-Jul-23 15:28N 40°15' E 122°06'0 0.0
2015-Jul-23 14:22N 40°15' E 122°06'0 0.1
2015-Jul-23 13:28N 40°15' E 122°06'0 0.0
2015-Jul-23 12:28N 40°15' E 122°06'0 0.0
2015-Jul-23 11:28N 40°15' E 122°06'0 0.0
2015-Jul-23 10:28N 40°15' E 122°06'0 0.0
2015-Jul-23 09:28N 40°15' E 122°06'0 0.0
2015-Jul-23 08:28N 40°15' E 122°06'0 0.0
2015-Jul-23 07:28N 40°15' E 122°06'0 0.0
2015-Jul-23 06:22N 40°15' E 122°06'0 0.1
2015-Jul-23 05:28N 40°15' E 122°06'0 0.0
2015-Jul-23 04:28N 40°15' E 122°06'0 0.0
2015-Jul-23 03:28N 40°15' E 122°06'0 0.0
2015-Jul-23 02:28N 40°15' E 122°06'0 0.0
2015-Jul-23 01:28N 40°15' E 122°06'0 0.0
2015-Jul-23 00:28N 40°15' E 122°06'0 0.0
2015-Jul-22 23:28N 40°15' E 122°06'0 0.0
2015-Jul-22 22:28N 40°15' E 122°06'0 0.0
2015-Jul-22 21:28N 40°15' E 122°06'0 0.0
2015-Jul-22 20:28N 40°15' E 122°06'0 0.0
2015-Jul-22 19:28N 40°15' E 122°06'0 0.0
2015-Jul-22 18:16N 40°15' E 122°06'0 0.1
2015-Jul-22 17:28N 40°15' E 122°06'0 0.0
2015-Jul-22 16:28N 40°15' E 122°06'0 0.0
2015-Jul-22 15:28N 40°15' E 122°06'0 0.0
2015-Jul-22 14:28N 40°15' E 122°06'0 0.0
2015-Jul-22 13:28N 40°15' E 122°06'0 0.0
2015-Jul-22 12:28N 40°15' E 122°06'0 0.0
2015-Jul-22 11:22N 40°15' E 122°06'0 0.0
2015-Jul-22 10:28N 40°15' E 122°06'0 0.0
2015-Jul-22 09:28N 40°15' E 122°06'0 0.0
2015-Jul-22 08:28N 40°15' E 122°06'0 0.0
2015-Jul-22 07:28N 40°15' E 122°06'0 0.0
2015-Jul-22 06:28N 40°15' E 122°06'0 0.0
2015-Jul-22 05:28N 40°15' E 122°06'0 0.0
2015-Jul-22 04:28N 40°15' E 122°06'0 0.0
2015-Jul-22 03:22N 40°15' E 122°06'0 0.0
2015-Jul-22 02:28N 40°15' E 122°06'0 0.0
2015-Jul-22 01:28N 40°15' E 122°06'0 0.0
2015-Jul-22 00:28N 40°15' E 122°06'0 0.0
2015-Jul-21 23:28N 40°15' E 122°06'0 0.0
2015-Jul-21 22:28N 40°15' E 122°06'0 0.0
2015-Jul-21 21:28N 40°15' E 122°06'0 0.0
2015-Jul-21 20:28N 40°15' E 122°06'0 0.0
2015-Jul-21 19:28N 40°15' E 122°06'0 0.0
2015-Jul-21 18:28N 40°15' E 122°06'0 0.0
2015-Jul-21 17:28N 40°15' E 122°06'0 0.0
2015-Jul-21 16:28N 40°15' E 122°06'0 0.0
2015-Jul-21 15:28N 40°15' E 122°06'0 0.0
2015-Jul-21 14:28N 40°15' E 122°06'0 0.0
2015-Jul-21 13:28N 40°15' E 122°06'0 0.0
2015-Jul-21 12:28N 40°15' E 122°06'0 0.0
2015-Jul-21 11:28N 40°15' E 122°06'0 0.0
2015-Jul-21 10:28N 40°15' E 122°06'0 0.0
2015-Jul-21 09:28N 40°15' E 122°06'0 0.0
2015-Jul-21 08:28N 40°15' E 122°06'0 0.0
2015-Jul-21 07:28N 40°15' E 122°06'0 0.0
2015-Jul-21 06:28N 40°15' E 122°06'0 0.0
2015-Jul-21 05:28N 40°15' E 122°06'0 0.0
2015-Jul-21 04:28N 40°15' E 122°06'0 0.0
2015-Jul-21 03:28N 40°15' E 122°06'0 0.1
2015-Jul-21 02:28N 40°15' E 122°06'0 0.0
2015-Jul-21 01:28N 40°15' E 122°06'0 0.0
2015-Jul-20 22:28N 40°15' E 122°06'0 0.0
2015-Jul-20 21:28N 40°15' E 122°06'0 0.0
2015-Jul-20 20:28N 40°15' E 122°06'0 0.0
2015-Jul-20 19:28N 40°15' E 122°06'0 0.0
2015-Jul-20 18:22N 40°15' E 122°06'0 0.0
2015-Jul-20 17:28N 40°15' E 122°06'0 0.0
2015-Jul-20 16:28N 40°15' E 122°06'0 0.0
2015-Jul-20 15:28N 40°15' E 122°06'0 0.0
2015-Jul-20 14:28N 40°15' E 122°06'0 0.0
2015-Jul-20 13:28N 40°15' E 122°06'0 0.0
2015-Jul-20 12:28N 40°15' E 122°06'0 0.0
2015-Jul-20 11:28N 40°15' E 122°06'0 0.1
2015-Jul-20 10:34N 40°15' E 122°06'0 0.0
2015-Jul-20 09:34N 40°15' E 122°06'0 0.0
2015-Jul-20 08:28N 40°15' E 122°06'0 0.0
2015-Jul-20 07:28N 40°15' E 122°06'0 0.0
2015-Jul-20 06:28N 40°15' E 122°06'0 0.0
2015-Jul-20 05:33N 40°15' E 122°06'0 0.0
2015-Jul-20 04:28N 40°15' E 122°06'0 0.0
2015-Jul-20 03:27N 40°15' E 122°06'0 0.1
2015-Jul-20 02:33N 40°15' E 122°06'0 0.0
2015-Jul-20 01:28N 40°15' E 122°06'0 0.0
2015-Jul-20 00:28N 40°15' E 122°06'0 0.0
2015-Jul-19 23:34N 40°15' E 122°06'0 0.0
2015-Jul-19 22:34N 40°15' E 122°06'0 0.0
2015-Jul-19 21:28N 40°15' E 122°06'0 0.0
2015-Jul-19 20:28N 40°15' E 122°06'0 0.0
2015-Jul-19 19:28N 40°15' E 122°06'0 0.1
2015-Jul-19 18:33N 40°15' E 122°06'0 0.0
2015-Jul-19 17:33N 40°15' E 122°06'0 0.0
2015-Jul-19 16:27N 40°15' E 122°06'0 0.0
2015-Jul-19 15:27N 40°15' E 122°06'0 0.0
2015-Jul-19 14:28N 40°15' E 122°06'0 0.1
2015-Jul-19 13:34N 40°15' E 122°06'0 0.0
2015-Jul-19 12:33N 40°15' E 122°06'0 0.0
2015-Jul-19 11:34N 40°15' E 122°06'0 0.0
2015-Jul-19 10:28N 40°15' E 122°06'0 0.1
2015-Jul-19 09:34N 40°15' E 122°06'0 0.0
2015-Jul-19 06:21N 40°15' E 122°06'0 0.1
2015-Jul-19 05:33N 40°15' E 122°06'0 0.0
2015-Jul-19 04:33N 40°15' E 122°06'0 0.0
2015-Jul-19 00:33N 40°15' E 122°06'0 0.0
2015-Jul-18 23:33N 40°15' E 122°06'0 0.0
2015-Jul-18 22:33N 40°15' E 122°06'0 0.0
2015-Jul-18 21:33N 40°15' E 122°06'0 0.0
2015-Jul-18 20:27N 40°15' E 122°06'0 0.0
2015-Jul-18 19:27N 40°15' E 122°06'0 0.0
2015-Jul-18 18:33N 40°15' E 122°06'0 0.0
2015-Jul-18 17:33N 40°15' E 122°06'0 0.0
2015-Jul-18 16:33N 40°15' E 122°06'0 0.0
2015-Jul-18 15:27N 40°15' E 122°06'0 0.1
2015-Jul-18 14:33N 40°15' E 122°06'0 0.0
2015-Jul-18 13:33N 40°15' E 122°06'0 0.0
2015-Jul-18 12:33N 40°15' E 122°06'12 0.5
2015-Jul-17 14:14N 40°22' E 121°53'0 0.0
2015-Jul-17 11:32N 40°22' E 121°53'0 0.0
2015-Jul-17 10:32N 40°22' E 121°53'0 0.0
2015-Jul-17 04:32N 40°22' E 121°53'0 0.1
2015-Jul-17 03:26N 40°22' E 121°53'0 0.0
2015-Jul-17 01:26N 40°22' E 121°53'0 0.0
2015-Jul-17 00:32N 40°22' E 121°53'0 0.0
2015-Jul-16 17:31N 40°22' E 121°53'  
Track history (hours):
 
Tides and Currents Weather Stations Pressure Air Temp Water Temp Dewpoint Dewpoint Depression Visibility Wind Speed Wind Dir Waves Ship Positions

E.r. Bern

Last reported at 2015-Jul-26 17:31 UTC. Time now 2015-Aug-01 20:18 UTC.
Position N 29°22' E 122°59'.

Length 187 m; draft 12.4 m.

Type: Cargo ship. MMSI: 636092150.

Date/timePositionNaut miles runAvg speedWind from/ knotsBaromVisibWave heightAir tempDewpointWater temp
2015-Jul-26 17:31N 29°22' E 122°59'1410.4
2015-Jul-26 16:10N 29°36' E 123°03'710.6
2015-Jul-26 15:29N 29°43' E 123°04'1010.4
2015-Jul-26 14:33N 29°52' E 123°07'1310.5
2015-Jul-26 13:22N 30°05' E 123°10'1010.1
2015-Jul-26 12:20N 30°15' E 123°12'1810.1
2015-Jul-26 10:33N 30°32' E 123°17'22 9.5
2015-Jul-26 08:15N 30°54' E 123°20'7 9.8
2015-Jul-26 07:32N 31°01' E 123°19'11 9.8
2015-Jul-26 06:25N 31°12' E 123°18'33510.3
2015-Jul-24 22:05N 36°46' E 122°48'611.9
2015-Jul-24 21:33N 36°52' E 122°48'1211.7
2015-Jul-24 20:31N 37°04' E 122°48'3110.4
2015-Jul-24 17:30N 37°35' E 122°39'1010.5
2015-Jul-24 16:33N 37°41' E 122°29'1110.5
2015-Jul-24 15:33N 37°48' E 122°19'1310.8
2015-Jul-24 14:22N 37°57' E 122°08'141 7.5
2015-Jul-23 19:26N 40°18' E 121°55'8 8.9
2015-Jul-23 18:33N 40°17' E 122°05'2 1.9
2015-Jul-23 17:28N 40°15' E 122°06'0 0.0
2015-Jul-23 16:28N 40°15' E 122°06'0 0.0
2015-Jul-23 15:28N 40°15' E 122°06'0 0.0
2015-Jul-23 14:22N 40°15' E 122°06'0 0.1
2015-Jul-23 13:28N 40°15' E 122°06'0 0.0
2015-Jul-23 12:28N 40°15' E 122°06'0 0.0
2015-Jul-23 11:28N 40°15' E 122°06'0 0.0
2015-Jul-23 10:28N 40°15' E 122°06'0 0.0
2015-Jul-23 09:28N 40°15' E 122°06'0 0.0
2015-Jul-23 08:28N 40°15' E 122°06'0 0.0
2015-Jul-23 07:28N 40°15' E 122°06'0 0.0
2015-Jul-23 06:22N 40°15' E 122°06'0 0.1
2015-Jul-23 05:28N 40°15' E 122°06'0 0.0
2015-Jul-23 04:28N 40°15' E 122°06'0 0.0
2015-Jul-23 03:28N 40°15' E 122°06'0 0.0
2015-Jul-23 02:28N 40°15' E 122°06'0 0.0
2015-Jul-23 01:28N 40°15' E 122°06'0 0.0
2015-Jul-23 00:28N 40°15' E 122°06'0 0.0
2015-Jul-22 23:28N 40°15' E 122°06'0 0.0
2015-Jul-22 22:28N 40°15' E 122°06'0 0.0
2015-Jul-22 21:28N 40°15' E 122°06'0 0.0
2015-Jul-22 20:28N 40°15' E 122°06'0 0.0
2015-Jul-22 19:28N 40°15' E 122°06'0 0.0
2015-Jul-22 18:16N 40°15' E 122°06'0 0.1
2015-Jul-22 17:28N 40°15' E 122°06'0 0.0
2015-Jul-22 16:28N 40°15' E 122°06'0 0.0
2015-Jul-22 15:28N 40°15' E 122°06'0 0.0
2015-Jul-22 14:28N 40°15' E 122°06'0 0.0
2015-Jul-22 13:28N 40°15' E 122°06'0 0.0
2015-Jul-22 12:28N 40°15' E 122°06'0 0.0
2015-Jul-22 11:22N 40°15' E 122°06'0 0.0
2015-Jul-22 10:28N 40°15' E 122°06'0 0.0
2015-Jul-22 09:28N 40°15' E 122°06'0 0.0
2015-Jul-22 08:28N 40°15' E 122°06'0 0.0
2015-Jul-22 07:28N 40°15' E 122°06'0 0.0
2015-Jul-22 06:28N 40°15' E 122°06'0 0.0
2015-Jul-22 05:28N 40°15' E 122°06'0 0.0
2015-Jul-22 04:28N 40°15' E 122°06'0 0.0
2015-Jul-22 03:22N 40°15' E 122°06'0 0.0
2015-Jul-22 02:28N 40°15' E 122°06'0 0.0
2015-Jul-22 01:28N 40°15' E 122°06'0 0.0
2015-Jul-22 00:28N 40°15' E 122°06'0 0.0
2015-Jul-21 23:28N 40°15' E 122°06'0 0.0
2015-Jul-21 22:28N 40°15' E 122°06'0 0.0
2015-Jul-21 21:28N 40°15' E 122°06'0 0.0
2015-Jul-21 20:28N 40°15' E 122°06'0 0.0
2015-Jul-21 19:28N 40°15' E 122°06'0 0.0
2015-Jul-21 18:28N 40°15' E 122°06'0 0.0
2015-Jul-21 17:28N 40°15' E 122°06'0 0.0
2015-Jul-21 16:28N 40°15' E 122°06'0 0.0
2015-Jul-21 15:28N 40°15' E 122°06'0 0.0
2015-Jul-21 14:28N 40°15' E 122°06'0 0.0
2015-Jul-21 13:28N 40°15' E 122°06'0 0.0
2015-Jul-21 12:28N 40°15' E 122°06'0 0.0
2015-Jul-21 11:28N 40°15' E 122°06'0 0.0
2015-Jul-21 10:28N 40°15' E 122°06'0 0.0
2015-Jul-21 09:28N 40°15' E 122°06'0 0.0
2015-Jul-21 08:28N 40°15' E 122°06'0 0.0
2015-Jul-21 07:28N 40°15' E 122°06'0 0.0
2015-Jul-21 06:28N 40°15' E 122°06'0 0.0
2015-Jul-21 05:28N 40°15' E 122°06'0 0.0
2015-Jul-21 04:28N 40°15' E 122°06'0 0.0
2015-Jul-21 03:28N 40°15' E 122°06'0 0.1
2015-Jul-21 02:28N 40°15' E 122°06'0 0.0
2015-Jul-21 01:28N 40°15' E 122°06'0 0.0
2015-Jul-20 22:28N 40°15' E 122°06'0 0.0
2015-Jul-20 21:28N 40°15' E 122°06'0 0.0
2015-Jul-20 20:28N 40°15' E 122°06'0 0.0
2015-Jul-20 19:28N 40°15' E 122°06'0 0.0
2015-Jul-20 18:22N 40°15' E 122°06'0 0.0
2015-Jul-20 17:28N 40°15' E 122°06'0 0.0
2015-Jul-20 16:28N 40°15' E 122°06'0 0.0
2015-Jul-20 15:28N 40°15' E 122°06'0 0.0
2015-Jul-20 14:28N 40°15' E 122°06'0 0.0
2015-Jul-20 13:28N 40°15' E 122°06'0 0.0
2015-Jul-20 12:28N 40°15' E 122°06'0 0.0
2015-Jul-20 11:28N 40°15' E 122°06'0 0.1
2015-Jul-20 10:34N 40°15' E 122°06'0 0.0
2015-Jul-20 09:34N 40°15' E 122°06'0 0.0
2015-Jul-20 08:28N 40°15' E 122°06'0 0.0
2015-Jul-20 07:28N 40°15' E 122°06'0 0.0
2015-Jul-20 06:28N 40°15' E 122°06'0 0.0
2015-Jul-20 05:33N 40°15' E 122°06'0 0.0
2015-Jul-20 04:28N 40°15' E 122°06'0 0.0
2015-Jul-20 03:27N 40°15' E 122°06'0 0.1
2015-Jul-20 02:33N 40°15' E 122°06'0 0.0
2015-Jul-20 01:28N 40°15' E 122°06'0 0.0
2015-Jul-20 00:28N 40°15' E 122°06'0 0.0
2015-Jul-19 23:34N 40°15' E 122°06'0 0.0
2015-Jul-19 22:34N 40°15' E 122°06'0 0.0
2015-Jul-19 21:28N 40°15' E 122°06'0 0.0
2015-Jul-19 20:28N 40°15' E 122°06'0 0.0
2015-Jul-19 19:28N 40°15' E 122°06'0 0.1
2015-Jul-19 18:33N 40°15' E 122°06'0 0.0
2015-Jul-19 17:33N 40°15' E 122°06'0 0.0
2015-Jul-19 16:27N 40°15' E 122°06'0 0.0
2015-Jul-19 15:27N 40°15' E 122°06'0 0.0
2015-Jul-19 14:28N 40°15' E 122°06'0 0.1
2015-Jul-19 13:34N 40°15' E 122°06'0 0.0
2015-Jul-19 12:33N 40°15' E 122°06'0 0.0
2015-Jul-19 11:34N 40°15' E 122°06'0 0.0
2015-Jul-19 10:28N 40°15' E 122°06'0 0.1
2015-Jul-19 09:34N 40°15' E 122°06'0 0.0
2015-Jul-19 06:21N 40°15' E 122°06'0 0.1
2015-Jul-19 05:33N 40°15' E 122°06'0 0.0
2015-Jul-19 04:33N 40°15' E 122°06'0 0.0
2015-Jul-19 00:33N 40°15' E 122°06'0 0.0
2015-Jul-18 23:33N 40°15' E 122°06'0 0.0
2015-Jul-18 22:33N 40°15' E 122°06'0 0.0
2015-Jul-18 21:33N 40°15' E 122°06'0 0.0
2015-Jul-18 20:27N 40°15' E 122°06'0 0.0
2015-Jul-18 19:27N 40°15' E 122°06'0 0.0
2015-Jul-18 18:33N 40°15' E 122°06'0 0.0
2015-Jul-18 17:33N 40°15' E 122°06'0 0.0
2015-Jul-18 16:33N 40°15' E 122°06'0 0.0
2015-Jul-18 15:27N 40°15' E 122°06'0 0.1
2015-Jul-18 14:33N 40°15' E 122°06'0 0.0
2015-Jul-18 13:33N 40°15' E 122°06'0 0.0
2015-Jul-18 12:33N 40°15' E 122°06'12 0.5
2015-Jul-17 14:14N 40°22' E 121°53'0 0.0
2015-Jul-17 11:32N 40°22' E 121°53'0 0.0
2015-Jul-17 10:32N 40°22' E 121°53'0 0.0
2015-Jul-17 04:32N 40°22' E 121°53'0 0.1
2015-Jul-17 03:26N 40°22' E 121°53'0 0.0
2015-Jul-17 01:26N 40°22' E 121°53'0 0.0
2015-Jul-17 00:32N 40°22' E 121°53'0 0.0
2015-Jul-16 17:31N 40°22' E 121°53'  

Dump ship's entire track history